createdAt,value
2023-01-09T00:00:45.549Z,60.17
2023-01-09T00:03:12.164Z,60.12
2023-01-09T00:05:38.636Z,59.89
2023-01-09T00:08:05.910Z,59.98
2023-01-09T00:10:32.490Z,60.03
2023-01-09T00:13:03.111Z,59.61
2023-01-09T00:15:29.795Z,59.72
2023-01-09T00:17:56.490Z,59.56
2023-01-09T00:20:23.213Z,59.47
2023-01-09T00:22:49.780Z,59.69
2023-01-09T00:25:16.401Z,59.37
2023-01-09T00:27:43.056Z,59.67
2023-01-09T00:30:10.613Z,59.55
2023-01-09T00:32:37.279Z,59.28
2023-01-09T00:35:04.020Z,59.51
2023-01-09T00:37:30.571Z,59.36
2023-01-09T00:39:57.263Z,59.34
2023-01-09T00:42:28.501Z,59.02
2023-01-09T00:44:59.037Z,59.11
2023-01-09T00:47:32.407Z,59.37
2023-01-09T00:50:10.106Z,59.13
2023-01-09T00:52:37.983Z,59.08
2023-01-09T00:55:05.933Z,59.03
2023-01-09T00:57:32.994Z,58.97
2023-01-09T01:00:00.162Z,58.97
2023-01-09T01:02:27.008Z,59.24
2023-01-09T01:05:12.797Z,59.04
2023-01-09T01:07:39.325Z,59.07
2023-01-09T01:10:08.489Z,59.13
2023-01-09T01:12:35.109Z,58.79
2023-01-09T01:15:02.031Z,58.76
2023-01-09T01:17:28.614Z,58.89
2023-01-09T01:19:55.311Z,58.83
2023-01-09T01:22:21.892Z,58.94
2023-01-09T01:24:48.488Z,59.04
2023-01-09T01:27:15.022Z,58.87
2023-01-09T01:29:41.566Z,58.84
2023-01-09T01:32:08.242Z,59.10
2023-01-09T01:34:34.755Z,58.81
2023-01-09T01:37:01.408Z,59.17
2023-01-09T01:39:28.151Z,58.77
2023-01-09T01:41:54.715Z,58.88
2023-01-09T01:44:58.389Z,59.06
2023-01-09T01:47:34.850Z,58.99
2023-01-09T01:50:08.047Z,59.15
2023-01-09T01:52:36.889Z,58.91
2023-01-09T01:55:06.953Z,58.92
2023-01-09T01:57:34.330Z,58.97
2023-01-09T02:00:09.995Z,59.02
2023-01-09T02:02:36.620Z,58.78
2023-01-09T02:05:05.199Z,58.99
2023-01-09T02:07:31.843Z,59.13
2023-01-09T02:09:58.820Z,59.04
2023-01-09T02:12:27.711Z,59.14
2023-01-09T02:15:07.411Z,59.15
2023-01-09T02:17:43.888Z,58.85
2023-01-09T02:20:32.147Z,59.07
2023-01-09T02:23:05.518Z,58.78
2023-01-09T02:25:57.067Z,58.75
2023-01-09T02:28:42.396Z,59.05
2023-01-09T02:31:21.047Z,58.97
2023-01-09T02:34:08.939Z,58.98
2023-01-09T02:36:54.198Z,58.85
2023-01-09T02:39:27.504Z,58.85
2023-01-09T02:42:02.109Z,58.87
2023-01-09T02:44:30.858Z,58.76
2023-01-09T02:47:08.285Z,59.01
2023-01-09T02:49:38.395Z,59.00
2023-01-09T02:52:07.840Z,58.85
2023-01-09T02:54:37.366Z,58.95
2023-01-09T02:57:37.214Z,58.70
2023-01-09T03:00:25.022Z,58.74
2023-01-09T03:02:58.989Z,58.57
2023-01-09T03:05:57.272Z,58.85
2023-01-09T03:08:31.367Z,58.76
2023-01-09T03:11:04.619Z,58.82
2023-01-09T03:13:36.537Z,58.88
2023-01-09T03:16:07.702Z,58.73
2023-01-09T03:18:37.020Z,58.53
2023-01-09T03:21:06.230Z,58.80
2023-01-09T03:23:51.509Z,58.90
2023-01-09T03:26:18.370Z,59.00
2023-01-09T03:28:45.548Z,59.14
2023-01-09T03:31:13.149Z,59.30
2023-01-09T03:33:40.233Z,59.37
2023-01-09T03:36:07.151Z,59.09
2023-01-09T03:38:34.273Z,59.43
2023-01-09T03:41:01.039Z,59.29
2023-01-09T03:43:28.122Z,59.34
2023-01-09T03:45:54.850Z,59.63
2023-01-09T03:48:21.759Z,59.52
2023-01-09T03:50:50.313Z,59.38
2023-01-09T03:53:17.304Z,59.69
2023-01-09T03:55:48.666Z,59.64
2023-01-09T03:58:16.035Z,59.70
2023-01-09T04:00:45.866Z,59.65
2023-01-09T04:03:12.991Z,59.77
2023-01-09T04:05:39.501Z,59.70
2023-01-09T04:08:06.139Z,59.92
2023-01-09T04:10:33.300Z,59.88
2023-01-09T04:12:59.892Z,59.81
2023-01-09T04:15:26.546Z,59.96
2023-01-09T04:17:53.190Z,59.85
2023-01-09T04:20:19.778Z,60.04
2023-01-09T04:22:46.364Z,60.11
2023-01-09T04:25:12.983Z,60.07
2023-01-09T04:27:39.497Z,60.27
2023-01-09T04:30:06.693Z,60.30
2023-01-09T04:32:33.212Z,60.44
2023-01-09T04:34:59.757Z,60.30
2023-01-09T04:37:26.353Z,60.31
2023-01-09T04:39:55.916Z,60.17
2023-01-09T04:42:23.068Z,60.13
2023-01-09T04:44:53.651Z,60.26
2023-01-09T04:47:21.289Z,60.47
2023-01-09T04:49:47.897Z,60.53
2023-01-09T04:52:14.543Z,60.48
2023-01-09T04:54:41.090Z,60.80
2023-01-09T04:57:07.710Z,60.66
2023-01-09T04:59:34.442Z,60.89
2023-01-09T05:02:01.136Z,60.72
2023-01-09T05:04:27.932Z,60.75
2023-01-09T05:06:54.499Z,60.68
2023-01-09T05:09:22.136Z,60.92
2023-01-09T05:11:49.050Z,60.96
2023-01-09T05:14:15.632Z,60.68
2023-01-09T05:16:42.161Z,61.11
2023-01-09T05:19:08.688Z,60.86
2023-01-09T05:21:35.376Z,61.05
2023-01-09T05:24:01.912Z,61.00
2023-01-09T05:26:28.551Z,60.98
2023-01-09T05:28:56.520Z,61.07
2023-01-09T05:31:24.582Z,60.86
2023-01-09T05:33:51.153Z,60.84
2023-01-09T05:36:17.905Z,61.00
2023-01-09T05:38:44.457Z,60.89
2023-01-09T05:41:11.277Z,60.95
2023-01-09T05:43:37.857Z,60.86
2023-01-09T05:46:04.496Z,61.03
2023-01-09T05:48:31.014Z,61.39
2023-01-09T05:50:57.752Z,61.06
2023-01-09T05:53:24.303Z,60.89
2023-01-09T05:55:50.843Z,60.92
2023-01-09T05:58:17.352Z,60.99
2023-01-09T06:00:43.954Z,60.97
2023-01-09T06:03:10.507Z,61.18
2023-01-09T06:05:37.093Z,60.99
2023-01-09T06:08:03.673Z,60.96
2023-01-09T06:10:30.514Z,61.08
2023-01-09T06:12:57.119Z,61.00
2023-01-09T06:15:23.645Z,61.12
2023-01-09T06:17:50.335Z,60.95
2023-01-09T06:20:17.200Z,60.87
2023-01-09T06:22:45.305Z,60.89
2023-01-09T06:25:13.026Z,60.89
2023-01-09T06:27:39.573Z,60.67
2023-01-09T06:30:06.915Z,61.02
2023-01-09T06:32:33.698Z,60.94
2023-01-09T06:35:00.205Z,60.91
2023-01-09T06:37:26.747Z,60.86
2023-01-09T06:39:54.229Z,61.05
2023-01-09T06:42:21.011Z,61.00
2023-01-09T06:44:47.673Z,60.99
2023-01-09T06:47:14.215Z,61.07
2023-01-09T06:49:40.879Z,60.68
2023-01-09T06:52:07.777Z,60.90
2023-01-09T06:54:35.393Z,60.84
2023-01-09T06:57:01.966Z,61.01
2023-01-09T06:59:28.463Z,61.11
2023-01-09T07:01:55.150Z,60.71
2023-01-09T07:04:24.288Z,61.03
2023-01-09T07:06:50.850Z,61.00
2023-01-09T07:09:17.444Z,60.81
2023-01-09T07:11:44.059Z,60.90
2023-01-09T07:14:10.583Z,60.94
2023-01-09T07:16:37.120Z,61.09
2023-01-09T07:19:03.686Z,60.99
2023-01-09T07:21:32.660Z,61.15
2023-01-09T07:23:59.662Z,61.20
2023-01-09T07:26:26.373Z,60.96
2023-01-09T07:28:53.313Z,61.04
2023-01-09T07:31:19.923Z,60.88
2023-01-09T07:33:46.528Z,61.06
2023-01-09T07:36:13.083Z,61.29
2023-01-09T07:38:39.713Z,60.81
2023-01-09T07:41:06.381Z,61.09
2023-01-09T07:43:33.343Z,61.09
2023-01-09T07:45:59.903Z,60.97
2023-01-09T07:48:26.586Z,61.02
2023-01-09T07:50:53.183Z,60.74
2023-01-09T07:53:19.880Z,60.93
2023-01-09T07:55:46.519Z,60.91
2023-01-09T07:58:16.290Z,60.88
2023-01-09T08:00:42.891Z,60.98
2023-01-09T08:03:09.478Z,60.90
2023-01-09T08:05:40.862Z,61.15
2023-01-09T08:08:07.522Z,61.33
2023-01-09T08:10:34.067Z,61.16
2023-01-09T08:13:00.715Z,61.06
2023-01-09T08:15:29.022Z,61.24
2023-01-09T08:17:55.497Z,60.99
2023-01-09T08:20:22.057Z,61.07
2023-01-09T08:22:49.707Z,61.47
2023-01-09T08:25:17.967Z,61.31
2023-01-09T08:27:44.856Z,61.22
2023-01-09T08:30:12.326Z,61.09
2023-01-09T08:32:39.241Z,61.39
2023-01-09T08:35:10.178Z,61.29
2023-01-09T08:37:36.733Z,61.41
2023-01-09T08:40:03.443Z,61.32
2023-01-09T08:42:49.867Z,61.29
2023-01-09T08:45:35.135Z,61.39
2023-01-09T08:48:01.758Z,61.30
2023-01-09T08:50:28.355Z,61.24
2023-01-09T08:52:54.900Z,61.18
2023-01-09T08:55:21.595Z,61.28
2023-01-09T08:57:51.675Z,61.30
2023-01-09T09:00:20.257Z,61.41
2023-01-09T09:02:54.705Z,61.38
2023-01-09T09:05:22.532Z,61.37
2023-01-09T09:07:56.080Z,61.32
2023-01-09T09:10:24.436Z,61.20
2023-01-09T09:12:52.930Z,61.19
2023-01-09T09:15:25.409Z,61.48
2023-01-09T09:17:54.562Z,61.00
2023-01-09T09:20:28.454Z,61.32
2023-01-09T09:22:55.436Z,61.29
2023-01-09T09:25:22.075Z,61.28
2023-01-09T09:27:48.887Z,61.25
2023-01-09T09:30:17.696Z,61.41
2023-01-09T09:32:44.401Z,61.53
2023-01-09T09:35:11.347Z,61.23
2023-01-09T09:37:39.739Z,61.60
2023-01-09T09:40:18.002Z,61.30
2023-01-09T09:43:25.864Z,61.44
2023-01-09T09:46:36.425Z,61.36
2023-01-09T09:49:13.863Z,61.35
2023-01-09T09:52:14.267Z,61.74
2023-01-09T09:54:44.872Z,61.61
2023-01-09T09:57:17.103Z,61.66
2023-01-09T09:59:44.725Z,61.67
2023-01-09T10:02:39.149Z,61.53
2023-01-09T10:05:15.355Z,61.60
2023-01-09T10:07:47.600Z,61.54
2023-01-09T10:10:29.855Z,61.78
2023-01-09T10:12:59.166Z,61.21
2023-01-09T10:15:45.528Z,61.67
2023-01-09T10:18:17.384Z,61.64
2023-01-09T10:20:57.885Z,61.80
2023-01-09T10:23:53.657Z,61.78
2023-01-09T10:26:32.588Z,61.58
2023-01-09T10:29:18.014Z,61.73
2023-01-09T10:32:09.272Z,61.58
2023-01-09T10:34:47.335Z,61.71
2023-01-09T10:37:29.233Z,61.54
2023-01-09T10:40:05.557Z,61.34
2023-01-09T10:42:47.705Z,61.55
2023-01-09T10:45:24.151Z,61.31
2023-01-09T10:47:50.831Z,61.37
2023-01-09T10:50:30.915Z,61.38
2023-01-09T10:52:58.198Z,61.56
2023-01-09T10:55:39.908Z,61.86
2023-01-09T10:58:13.164Z,61.44
2023-01-09T11:00:40.654Z,61.19
2023-01-09T11:03:15.926Z,61.43
2023-01-09T11:05:43.323Z,60.95
2023-01-09T11:08:11.443Z,61.01
2023-01-09T11:10:44.098Z,61.21
2023-01-09T11:13:31.812Z,61.18
2023-01-09T11:16:06.712Z,61.35
2023-01-09T11:18:55.673Z,61.25
2023-01-09T11:21:28.193Z,61.30
2023-01-09T11:24:21.329Z,60.84
2023-01-09T11:26:50.237Z,60.70
2023-01-09T11:29:24.243Z,60.79
2023-01-09T11:31:54.241Z,60.77
2023-01-09T11:34:23.994Z,60.75
2023-01-09T11:36:53.841Z,60.21
2023-01-09T11:39:30.670Z,60.38
2023-01-09T11:42:00.093Z,60.63
2023-01-09T11:44:28.548Z,60.30
2023-01-09T11:46:55.186Z,60.46
2023-01-09T11:49:24.736Z,60.51
2023-01-09T11:52:20.934Z,60.17
2023-01-09T11:54:52.245Z,60.49
2023-01-09T11:57:19.426Z,60.40
2023-01-09T11:59:46.018Z,60.11
2023-01-09T12:02:24.626Z,60.33
2023-01-09T12:05:02.934Z,60.09
2023-01-09T12:07:54.788Z,60.16
2023-01-09T12:10:33.452Z,60.29
2023-01-09T12:13:22.639Z,59.91
2023-01-09T12:16:04.438Z,60.06
2023-01-09T12:18:50.997Z,60.31
2023-01-09T12:21:41.443Z,60.17
2023-01-09T12:24:32.308Z,60.10
2023-01-09T12:27:29.768Z,60.23
2023-01-09T12:30:28.720Z,60.22
2023-01-09T12:33:04.227Z,60.31
2023-01-09T12:35:45.978Z,60.60
2023-01-09T12:38:37.845Z,60.64
2023-01-09T12:41:36.388Z,60.49
2023-01-09T12:44:38.285Z,59.93
2023-01-09T12:47:04.790Z,59.97
2023-01-09T12:49:37.404Z,59.93
2023-01-09T12:52:12.093Z,60.15
2023-01-09T12:54:46.556Z,60.06
2023-01-09T12:57:29.471Z,60.13
2023-01-09T13:00:06.077Z,60.01
2023-01-09T13:03:12.081Z,59.81
2023-01-09T13:06:01.327Z,60.12
2023-01-09T13:08:36.640Z,59.94
2023-01-09T13:11:19.997Z,59.87
2023-01-09T13:14:02.395Z,59.72
2023-01-09T13:16:33.813Z,59.73
2023-01-09T13:19:14.267Z,60.21
2023-01-09T13:21:41.661Z,59.74
2023-01-09T13:24:18.238Z,59.75
2023-01-09T13:27:02.268Z,59.97
2023-01-09T13:29:34.425Z,59.86
2023-01-09T13:32:08.823Z,59.61
2023-01-09T13:34:38.507Z,59.76
2023-01-09T13:37:05.722Z,59.75
2023-01-09T13:39:35.461Z,59.46
2023-01-09T13:42:25.902Z,59.69
2023-01-09T13:44:55.728Z,59.68
2023-01-09T13:47:24.855Z,59.50
2023-01-09T13:49:51.558Z,59.63
2023-01-09T13:52:38.130Z,59.76
2023-01-09T13:55:16.717Z,59.68
2023-01-09T13:58:01.498Z,59.73
2023-01-09T14:00:27.979Z,59.54
2023-01-09T14:03:03.782Z,59.40
2023-01-09T14:05:50.245Z,59.74
2023-01-09T14:08:22.566Z,59.53
2023-01-09T14:10:58.706Z,59.49
2023-01-09T14:13:33.353Z,59.25
2023-01-09T14:16:18.318Z,59.54
2023-01-09T14:18:51.278Z,59.52
2023-01-09T14:21:19.007Z,59.63
2023-01-09T14:23:54.340Z,59.62
2023-01-09T14:26:25.631Z,59.27
2023-01-09T14:28:52.691Z,59.45
2023-01-09T14:31:31.350Z,59.12
2023-01-09T14:34:35.538Z,59.40
2023-01-09T14:37:02.892Z,59.21
2023-01-09T14:39:31.951Z,59.30
2023-01-09T14:42:08.239Z,59.28
2023-01-09T14:45:02.579Z,59.49
2023-01-09T14:47:37.538Z,59.01
2023-01-09T14:50:14.121Z,59.45
2023-01-09T14:52:49.831Z,59.20
2023-01-09T14:55:31.261Z,59.23
2023-01-09T14:58:10.911Z,59.25
2023-01-09T15:00:46.054Z,59.14
2023-01-09T15:03:12.832Z,59.45
2023-01-09T15:05:39.435Z,59.37
2023-01-09T15:08:06.181Z,59.27
2023-01-09T15:10:37.210Z,59.59
2023-01-09T15:13:11.208Z,59.72
2023-01-09T15:15:37.849Z,59.63
2023-01-09T15:18:08.334Z,59.59
2023-01-09T15:20:35.267Z,59.67
2023-01-09T15:23:04.166Z,59.76
2023-01-09T15:25:39.898Z,59.53
2023-01-09T15:28:25.072Z,59.94
2023-01-09T15:31:00.380Z,59.59
2023-01-09T15:33:27.077Z,59.79
2023-01-09T15:36:00.037Z,59.97
2023-01-09T15:38:28.623Z,60.07
2023-01-09T15:40:59.386Z,59.96
2023-01-09T15:43:29.908Z,60.02
2023-01-09T15:45:57.623Z,60.01
2023-01-09T15:48:34.028Z,59.78
2023-01-09T15:51:18.294Z,59.95
2023-01-09T15:53:51.844Z,60.03
2023-01-09T15:56:24.078Z,59.74
2023-01-09T15:58:52.696Z,59.83
2023-01-09T16:01:27.842Z,59.82
2023-01-09T16:03:57.668Z,59.73
2023-01-09T16:06:26.127Z,59.57
2023-01-09T16:08:56.133Z,59.45
2023-01-09T16:11:27.315Z,59.42
2023-01-09T16:13:56.715Z,59.62
2023-01-09T16:16:28.966Z,59.62
2023-01-09T16:18:57.029Z,59.63
2023-01-09T16:21:32.879Z,59.48
2023-01-09T16:24:03.013Z,59.71
2023-01-09T16:26:31.204Z,59.53
2023-01-09T16:29:27.742Z,59.76
2023-01-09T16:32:02.252Z,59.37
2023-01-09T16:34:29.700Z,59.59
2023-01-09T16:36:56.402Z,59.72
2023-01-09T16:39:25.731Z,59.57
2023-01-09T16:42:11.419Z,59.25
2023-01-09T16:44:38.520Z,59.40
2023-01-09T16:47:05.634Z,58.94
2023-01-09T16:49:33.548Z,59.26
2023-01-09T16:52:03.118Z,59.19
2023-01-09T16:54:30.784Z,58.96
2023-01-09T16:56:57.561Z,59.22
2023-01-09T16:59:27.383Z,58.98
2023-01-09T17:01:54.832Z,58.74
2023-01-09T17:04:23.692Z,59.11
2023-01-09T17:06:50.762Z,59.05
2023-01-09T17:09:20.442Z,58.93
2023-01-09T17:11:47.027Z,59.15
2023-01-09T17:14:14.766Z,59.20
2023-01-09T17:16:50.813Z,59.24
2023-01-09T17:19:20.447Z,59.04
2023-01-09T17:21:50.400Z,59.23
2023-01-09T17:24:35.581Z,59.17
2023-01-09T17:27:21.493Z,59.31
2023-01-09T17:29:48.161Z,59.54
2023-01-09T17:32:18.492Z,59.44
2023-01-09T17:34:45.237Z,59.02
2023-01-09T17:37:14.741Z,59.42
2023-01-09T17:39:41.617Z,59.59
2023-01-09T17:42:08.271Z,59.51
2023-01-09T17:44:34.805Z,59.75
2023-01-09T17:47:01.479Z,59.70
2023-01-09T17:49:28.093Z,59.51
2023-01-09T17:51:54.675Z,59.72
2023-01-09T17:54:21.491Z,59.91
2023-01-09T17:56:50.912Z,60.01
2023-01-09T17:59:18.236Z,59.99
2023-01-09T18:01:45.380Z,60.15
2023-01-09T18:04:12.484Z,60.02
2023-01-09T18:06:39.121Z,59.82
2023-01-09T18:09:06.481Z,60.02
2023-01-09T18:11:37.552Z,60.10
2023-01-09T18:14:04.050Z,59.87
2023-01-09T18:16:30.702Z,60.13
2023-01-09T18:18:58.682Z,59.71
2023-01-09T18:21:27.185Z,59.86
2023-01-09T18:23:54.602Z,59.94
2023-01-09T18:26:22.439Z,60.08
2023-01-09T18:28:57.574Z,60.10
2023-01-09T18:31:28.809Z,60.17
2023-01-09T18:33:57.638Z,59.96
2023-01-09T18:36:29.992Z,60.22
2023-01-09T18:38:58.973Z,60.10
2023-01-09T18:41:25.723Z,59.95
2023-01-09T18:43:54.631Z,60.30
2023-01-09T18:46:24.548Z,60.02
2023-01-09T18:48:55.252Z,60.26
2023-01-09T18:51:22.673Z,60.30
2023-01-09T18:53:50.383Z,60.21
2023-01-09T18:56:19.131Z,60.17
2023-01-09T18:58:57.627Z,60.66
2023-01-09T19:01:25.419Z,60.64
2023-01-09T19:03:52.126Z,60.37
2023-01-09T19:06:19.009Z,60.58
2023-01-09T19:08:45.493Z,60.56
2023-01-09T19:11:12.091Z,60.34
2023-01-09T19:13:38.712Z,60.58
2023-01-09T19:16:08.232Z,60.56
2023-01-09T19:18:37.852Z,60.43
2023-01-09T19:21:11.586Z,60.79
2023-01-09T19:23:38.198Z,60.55
2023-01-09T19:26:08.396Z,60.77
2023-01-09T19:28:36.365Z,60.60
2023-01-09T19:31:03.038Z,60.43
2023-01-09T19:33:29.703Z,60.63
2023-01-09T19:35:56.248Z,60.46
2023-01-09T19:38:23.255Z,60.46
2023-01-09T19:40:49.946Z,60.64
2023-01-09T19:43:25.983Z,60.21
2023-01-09T19:45:54.559Z,60.40
2023-01-09T19:48:23.064Z,60.24
2023-01-09T19:50:50.005Z,60.30
2023-01-09T19:53:16.574Z,60.37
2023-01-09T19:55:43.053Z,60.24
2023-01-09T19:58:09.605Z,59.97
2023-01-09T20:00:36.684Z,60.17
2023-01-09T20:03:03.939Z,60.20
2023-01-09T20:05:30.446Z,60.29
2023-01-09T20:07:57.681Z,60.13
2023-01-09T20:10:24.406Z,60.25
2023-01-09T20:12:51.477Z,60.37
2023-01-09T20:15:17.939Z,60.31
2023-01-09T20:17:44.469Z,60.56
2023-01-09T20:20:11.274Z,60.55
2023-01-09T20:22:37.860Z,60.76
2023-01-09T20:25:04.715Z,60.69
2023-01-09T20:27:31.412Z,60.37
2023-01-09T20:29:57.933Z,60.36
2023-01-09T20:32:24.500Z,60.64
2023-01-09T20:34:51.000Z,60.54
2023-01-09T20:37:17.522Z,60.54
2023-01-09T20:39:44.101Z,60.90
2023-01-09T20:42:11.852Z,60.61
2023-01-09T20:44:38.401Z,60.89
2023-01-09T20:47:04.896Z,61.03
2023-01-09T20:49:31.432Z,60.73
2023-01-09T20:51:58.267Z,61.07
2023-01-09T20:54:24.981Z,61.01
2023-01-09T20:56:51.762Z,61.36
2023-01-09T20:59:22.929Z,61.14
2023-01-09T21:01:50.632Z,61.15
2023-01-09T21:04:18.121Z,61.15
2023-01-09T21:06:44.732Z,60.84
2023-01-09T21:09:11.265Z,61.06
2023-01-09T21:11:38.026Z,61.07
2023-01-09T21:14:04.686Z,60.60
2023-01-09T21:16:31.460Z,60.41
2023-01-09T21:18:58.125Z,60.51
2023-01-09T21:21:27.327Z,60.59
2023-01-09T21:23:56.844Z,60.34
2023-01-09T21:26:27.506Z,60.07
2023-01-09T21:28:55.483Z,60.26
2023-01-09T21:31:25.749Z,60.12
2023-01-09T21:33:54.424Z,59.93
2023-01-09T21:36:21.743Z,59.82
2023-01-09T21:38:48.542Z,60.07
2023-01-09T21:41:37.573Z,59.94
2023-01-09T21:44:22.698Z,59.84
2023-01-09T21:46:52.181Z,59.72
2023-01-09T21:49:20.331Z,59.69
2023-01-09T21:51:46.983Z,59.83
2023-01-09T21:54:13.554Z,59.87
2023-01-09T21:56:40.138Z,59.80
2023-01-09T21:59:06.846Z,59.90
2023-01-09T22:01:33.499Z,59.90
2023-01-09T22:04:00.224Z,59.90
2023-01-09T22:06:28.266Z,60.01
2023-01-09T22:08:55.808Z,59.86
2023-01-09T22:11:22.527Z,59.80
2023-01-09T22:13:49.927Z,59.94
2023-01-09T22:16:17.212Z,59.87
2023-01-09T22:18:43.781Z,59.73
2023-01-09T22:21:10.345Z,59.91
2023-01-09T22:23:36.843Z,60.00
2023-01-09T22:26:11.096Z,59.88
2023-01-09T22:28:45.364Z,59.80
2023-01-09T22:31:16.198Z,59.75
2023-01-09T22:33:42.784Z,60.05
2023-01-09T22:36:11.657Z,60.21
2023-01-09T22:38:38.366Z,59.91
2023-01-09T22:41:05.655Z,60.19
2023-01-09T22:43:32.259Z,60.07
2023-01-09T22:46:03.606Z,60.14
2023-01-09T22:48:36.761Z,60.08
2023-01-09T22:51:06.903Z,60.34
2023-01-09T22:53:34.227Z,60.35
2023-01-09T22:56:04.280Z,60.29
2023-01-09T22:58:31.833Z,60.27
2023-01-09T23:00:58.428Z,60.13
2023-01-09T23:03:25.721Z,60.03
2023-01-09T23:06:12.489Z,60.46
2023-01-09T23:08:39.885Z,60.17
2023-01-09T23:11:10.267Z,60.37
2023-01-09T23:13:37.099Z,60.11
2023-01-09T23:16:04.428Z,60.06
2023-01-09T23:18:31.315Z,60.12
2023-01-09T23:21:01.035Z,60.34
2023-01-09T23:23:29.067Z,60.49
2023-01-09T23:26:00.240Z,60.38
2023-01-09T23:28:28.008Z,60.46
2023-01-09T23:30:54.587Z,60.66
2023-01-09T23:33:21.357Z,60.90
2023-01-09T23:35:48.418Z,60.96
2023-01-09T23:38:15.483Z,60.90
2023-01-09T23:40:42.554Z,61.12
2023-01-09T23:43:11.313Z,61.02
2023-01-09T23:45:45.908Z,61.11
2023-01-09T23:48:14.729Z,60.95
2023-01-09T23:50:49.087Z,60.86
2023-01-09T23:53:16.131Z,60.73
2023-01-09T23:55:42.610Z,60.73
2023-01-09T23:58:09.192Z,60.76
